Tiempo atmosférico en la estación meteorológica de La Vall de Boi, Lleida (1092 m.)



Fecha
DESCASC
Temp. máxima en grados centígrados (hora)
DESCASC
Temp. mínima en grados centígrados (hora)
DESCASC
Temp. media en grados centígrados
DESCASC
Racha de viento máxima en m/sg (hora)
DESCASC
Velocidad máxima media en intervalos de 10 minutos(hora)
DESCASC
Precipitaciones diarias en mm
DESCASC
Precipitaciones de 00:00 a 06:00 en mm
DESCASC
Precipitaciones de 06:00 a 12:00 en mm
DESCASC
Precipitaciones de 12:00 a 18:00 en mm
DESCASC
Precipitaciones de 18:00 a 24:00 en mm
DESCASC

Gráficas

Temp. máximas Temp. mínimas Temp. medias Precipitaciones Rachas de viento máximas Velocidades máximas media en intervalos de 10 minutos

Datos horarios

Fecha y hora oficial Temperatura (ºC) Velocidad del viento (km/h) Dirección del viento Racha (km/h) Dirección de racha Precipitación (mm) Presión (hPa) Tendencia (hPa) Humedad (%)
2020-11-26 23:00:00 4.8 0 Calma 4 Sudeste 0 -- -- 99
2020-11-26 22:00:00 5.2 0 Calma 4 Sudoeste 0 -- -- 98
2020-11-26 21:00:00 5.9 2 Sudeste 4 Sudeste 0 -- -- 98
2020-11-26 20:00:00 6.2 0 Calma 5 Sudeste 0 -- -- 98
2020-11-26 19:00:00 6.6 4 Sur 6 Sur 0.2 -- -- 96
2020-11-26 18:00:00 7 0 Calma 10 Sudeste 0.6 -- -- 96
2020-11-26 17:00:00 7.6 0 Calma 5 Sudoeste 0.2 -- -- 94
2020-11-26 16:00:00 8.1 0 Calma 5 Oeste 0.2 -- -- 90
2020-11-26 15:00:00 9 3 Sudeste 21 Sudoeste 0.4 -- -- 82
2020-11-26 14:00:00 10.3 8 Sudoeste 22 Sudoeste 0 -- -- 64
2020-11-26 13:00:00 10.8 14 Sudoeste 22 Sudoeste 0 -- -- 65
2020-11-26 12:00:00 9.2 4 Este 8 Este 0 -- -- 69
2020-11-26 11:00:00 7.4 3 Oeste 8 Sudoeste 0 -- -- 77
2020-11-26 10:00:00 4.9 4 Nordeste 9 Norte 0 -- -- 90
2020-11-26 09:00:00 3.8 4 Norte 10 Noroeste 0 -- -- 91
2020-11-26 08:00:00 2.9 3 Nordeste 8 Sudeste 0 -- -- 94
2020-11-26 07:00:00 2.3 2 Noroeste 9 Norte 0 -- -- 96
2020-11-26 06:00:00 1.7 3 Norte 9 Sudeste 0 -- -- 98
2020-11-26 05:00:00 0.9 4 Norte 8 Sur 0 -- -- 97
2020-11-26 04:00:00 0.9 3 Este 6 Sudeste 0 -- -- 94
2020-11-26 03:00:00 1.6 0 Calma 8 Sudeste 0 -- -- 94
2020-11-26 02:00:00 2.6 0 Calma 6 Sur 0 -- -- 91
2020-11-26 01:00:00 3.6 2 Nordeste 8 Sudeste 0 -- -- 91
2020-11-26 00:00:00 4.3 4 Noroeste 7 Sudeste 0 -- -- 88
2020-11-25 23:00:00 5.3 0 Calma 7 Sur 0 -- -- 86
2020-11-25 22:00:00 5.7 0 Calma 4 Sudeste 0 -- -- 83
2020-11-25 21:00:00 6.4 0 Calma 6 Sudoeste 0 -- -- 80
2020-11-25 20:00:00 7.3 4 Sudoeste 16 Oeste 0 -- -- 76
2020-11-25 19:00:00 8.1 9 Oeste 17 Oeste 0 -- -- 72
2020-11-25 18:00:00 8 6 Oeste 16 Sudoeste 0 -- -- 70
2020-11-25 17:00:00 9.3 9 Sudoeste 21 Oeste 0 -- -- 64
2020-11-25 16:00:00 10.2 12 Sudoeste 19 Sudoeste 0 -- -- 60
2020-11-25 15:00:00 11.8 7 Sudoeste 16 Sudoeste 0 -- -- 52
2020-11-25 14:00:00 12.4 8 Sudoeste 16 Oeste 0 -- -- 50
2020-11-25 13:00:00 10.2 4 Sudoeste 9 Oeste 0 -- -- 55
2020-11-25 12:00:00 6.6 3 Sudeste 6 Sudeste 0 -- -- 57
2020-11-25 11:00:00 1.5 0 Calma 5 Sudeste 0 -- -- 85
2020-11-25 10:00:00 -3.5 0 Calma 4 Este 0 -- -- 95
2020-11-25 09:00:00 -4 0 Calma 4 Sudeste 0 -- -- 95
2020-11-25 08:00:00 -4.3 2 Nordeste 4 Norte 0 -- -- 95
2020-11-25 07:00:00 -4.4 0 Calma 3 Sudeste 0 -- -- 94
2020-11-25 06:00:00 -4.3 0 Calma 3 Sudeste 0 -- -- 94
2020-11-25 05:00:00 -4.3 0 Calma 4 Nordeste 0 -- -- 93
2020-11-25 04:00:00 -3.8 0 Calma 2 Nordeste 0 -- -- 93
2020-11-25 03:00:00 -3.7 0 Calma 3 Sudeste 0 -- -- 92
2020-11-25 02:00:00 -3.1 0 Calma 3 Sudeste 0 -- -- 93
2020-11-25 01:00:00 -2.4 0 Calma 3 Norte 0 -- -- 92
2020-11-25 00:00:00 -1.9 0 Calma 3 Este 0 -- -- 90
2020-11-24 23:00:00 -1 0 Calma 8 Sudoeste 0 -- -- 87
2020-11-24 22:00:00 -0.1 0 Calma -- -- 0 -- -- 87
2020-11-24 21:00:00 0.7 0 Calma -- -- 0 -- -- 83
2020-11-24 20:00:00 1.8 0 Calma -- -- 0 -- -- 79
2020-11-24 19:00:00 3.3 0 Calma -- -- 0 -- -- 72
2020-11-24 18:00:00 5.6 0 Calma 5 Este 0 -- -- 62
2020-11-24 17:00:00 10 8 Sudoeste 22 Oeste 0 -- -- 47
2020-11-24 16:00:00 13.1 13 Oeste 22 Oeste 0 -- -- 34
2020-11-24 15:00:00 14.2 11 Oeste 22 Sudoeste 0 -- -- 29
2020-11-24 14:00:00 14.1 13 Oeste 24 Sudoeste 0 -- -- 29
2020-11-24 13:00:00 12.6 5 Sur 10 Sudeste 0 -- -- 37
2020-11-24 12:00:00 9.1 2 Sudeste 8 Este 0 -- -- 54
2020-11-24 11:00:00 3.9 3 Sur 6 Sudoeste 0 -- -- 76
2020-11-24 10:00:00 -1.4 0 Calma -- -- 0 -- -- 98
2020-11-24 09:00:00 -3 0 Calma 3 Oeste 0 -- -- 96
2020-11-24 08:00:00 -3.3 0 Calma 4 Este 0 -- -- 95
2020-11-24 07:00:00 -3.4 0 Calma 3 Oeste 0 -- -- 95
2020-11-24 06:00:00 -3.4 0 Calma 4 Este 0 -- -- 95
2020-11-24 05:00:00 -3.4 0 Calma 2 Norte 0 -- -- 94
2020-11-24 04:00:00 -3.2 0 Calma -- -- 0 -- -- 94
2020-11-24 03:00:00 -3 0 Calma -- -- 0 -- -- 93
2020-11-24 02:00:00 -2.5 0 Calma -- -- 0 -- -- 92
2020-11-24 01:00:00 -2.1 0 Calma -- -- 0 -- -- 91
2020-11-24 00:00:00 -1.9 0 Calma 2 Este 0 -- -- 90
2020-11-23 23:00:00 -1.3 0 Calma 3 Norte 0 -- -- 91
2020-11-23 22:00:00 -0.7 0 Calma 2 Este 0 -- -- 88
2020-11-23 21:00:00 0 0 Calma 0 Calma 0 -- -- 86
2020-11-23 20:00:00 1 0 Calma 4 Sudeste 0 -- -- 81
2020-11-23 19:00:00 2.3 0 Calma 3 Norte 0 -- -- 77
2020-11-23 18:00:00 4.7 0 Calma 2 Sudeste 0 -- -- 67
2020-11-23 17:00:00 8.7 0 Calma 6 Sur 0 -- -- 53
2020-11-23 16:00:00 13.1 3 Sur 7 Sur 0 -- -- 40
2020-11-23 15:00:00 14.6 4 Sur 8 Sudoeste 0 -- -- 38
2020-11-23 14:00:00 14 5 Sur 9 Sur 0 -- -- 35
2020-11-23 13:00:00 12.1 3 Sudeste 6 Sur 0 -- -- 37
2020-11-23 12:00:00 8.2 2 Sur 5 Sudeste 0 -- -- 49
2020-11-23 11:00:00 2.4 0 Calma 5 Sudeste 0 -- -- 76
2020-11-23 10:00:00 -3.7 0 Calma 4 Este 0 -- -- 95
2020-11-23 09:00:00 -4.2 3 Nordeste 4 Norte 0 -- -- 95
2020-11-23 08:00:00 -4.4 0 Calma 2 Sudeste 0 -- -- 94
2020-11-23 07:00:00 -4.2 2 Sudoeste 4 Sur 0 -- -- 93
2020-11-23 06:00:00 -4 0 Calma 2 Este 0 -- -- 93
2020-11-23 05:00:00 -3.7 0 Calma 3 Oeste 0 -- -- 92
2020-11-23 04:00:00 -3.4 2 Sudoeste 5 Sur 0 -- -- 91
2020-11-23 03:00:00 -3.1 0 Calma 5 Sudeste 0 -- -- 91
2020-11-23 02:00:00 -3.1 0 Calma 4 Norte 0 -- -- 92
2020-11-23 01:00:00 -2.8 2 Noroeste 4 Norte 0 -- -- 91
2020-11-23 00:00:00 -2.5 0 Calma 4 Norte 0 -- -- 90
2020-11-22 23:00:00 -1.8 0 Calma 4 Norte 0 -- -- 89
2020-11-22 22:00:00 -1.2 0 Calma 3 Noroeste 0 -- -- 87
2020-11-22 21:00:00 -0.6 0 Calma 3 Sudeste 0 -- -- 84
2020-11-22 20:00:00 0.5 0 Calma 2 Sudeste 0 -- -- 80
2020-11-22 19:00:00 2.2 0 Calma 3 Norte 0 -- -- 74
2020-11-22 18:00:00 4.9 0 Calma 2 Sur 0 -- -- 63
2020-11-22 17:00:00 8.9 0 Calma 6 Sudeste 0 -- -- 49
2020-11-22 16:00:00 13.8 3 Sur 10 Sudoeste 0 -- -- 35
2020-11-22 15:00:00 15.5 6 Sur 12 Sudoeste 0 -- -- 32
2020-11-22 14:00:00 14.9 3 Sur 6 Sur 0 -- -- 26
2020-11-22 13:00:00 12.6 3 Sur 17 Sudoeste 0 -- -- 30
2020-11-22 12:00:00 8.6 3 Sudeste 4 Sur 0 -- -- 42
2020-11-22 11:00:00 2.5 2 Sudeste 5 Sudeste 0 -- -- 64
2020-11-22 10:00:00 -3.9 0 Calma 3 Sudeste 0 -- -- 91
2020-11-22 09:00:00 -4.5 0 Calma 4 Este 0 -- -- 90
2020-11-22 08:00:00 -4.8 0 Calma 6 Norte 0 -- -- 91
2020-11-22 07:00:00 -4.8 3 Este 5 Este 0 -- -- 91
2020-11-22 06:00:00 -4.7 0 Calma 4 Oeste 0 -- -- 90
2020-11-22 05:00:00 -4.4 0 Calma 4 Oeste 0 -- -- 90
2020-11-22 04:00:00 -4.1 0 Calma 5 Sudeste 0 -- -- 87
2020-11-22 03:00:00 -3.8 0 Calma 4 Norte 0 -- -- 87
2020-11-22 02:00:00 -3.5 0 Calma 3 Sudeste 0 -- -- 86
2020-11-22 01:00:00 -3.1 0 Calma 4 Norte 0 -- -- 85
2020-11-22 00:00:00 -2.8 0 Calma 4 Este 0 -- -- 85
2020-11-21 23:00:00 -2.3 0 Calma 4 Sudeste 0 -- -- 84
2020-11-21 22:00:00 -1.7 0 Calma 4 Sur 0 -- -- 81
2020-11-21 21:00:00 -0.9 0 Calma 3 Noroeste 0 -- -- 78
2020-11-21 20:00:00 0.2 0 Calma 4 Nordeste 0 -- -- 74
2020-11-21 19:00:00 1.7 0 Calma 5 Norte 0 -- -- 68
2020-11-21 18:00:00 4.3 0 Calma 3 Sudoeste 0 -- -- 59
2020-11-21 17:00:00 8.4 0 Calma 12 Oeste 0 -- -- 44
2020-11-21 16:00:00 14.1 10 Sudoeste 21 Sudoeste 0 -- -- 24
2020-11-21 15:00:00 14.7 12 Sudoeste 22 Sudoeste 0 -- -- 23
2020-11-21 14:00:00 14.3 15 Sudoeste 25 Oeste 0 -- -- 20
2020-11-21 13:00:00 12.9 4 Sudeste 13 Sudoeste 0 -- -- 25
2020-11-21 12:00:00 9.3 3 Sudoeste 8 Sudoeste 0 -- -- 32
2020-11-21 11:00:00 3.8 2 Sudeste 7 Sudeste 0 -- -- 56
2020-11-21 10:00:00 -3.3 2 Sur 8 Este 0 -- -- 82
2020-11-21 09:00:00 -3.7 3 Oeste 6 Norte 0 -- -- 78
2020-11-21 08:00:00 -3.9 2 Este 7 Sudeste 0 -- -- 77
2020-11-21 07:00:00 -3.4 3 Este 8 Sudeste 0 -- -- 73
2020-11-21 06:00:00 -3.2 0 Calma 9 Este 0 -- -- 71
2020-11-21 05:00:00 -2.7 3 Este 9 Este 0 -- -- 68
2020-11-21 04:00:00 -2.4 2 Noroeste 9 Sudeste 0 -- -- 66
2020-11-21 03:00:00 -1.7 3 Sudeste 10 Nordeste 0 -- -- 62
2020-11-21 02:00:00 -0.9 4 Sudeste 13 Sudeste 0 -- -- 57
2020-11-21 01:00:00 0.5 4 Sur 19 Sudoeste 0 -- -- 49
2020-11-21 00:00:00 0.3 5 Oeste 13 Este 0 -- -- 49
2020-11-20 23:00:00 1.8 3 Sudeste 13 Sudoeste 0 -- -- 44
2020-11-20 22:00:00 4.6 4 Sur 16 Sudoeste 0 -- -- 33
2020-11-20 21:00:00 9 5 Oeste 36 Norte 0 -- -- 10
2020-11-20 20:00:00 9.6 8 Nordeste 28 Norte 0 -- -- 10
2020-11-20 19:00:00 9.9 11 Nordeste 49 Este 0 -- -- 10
2020-11-20 18:00:00 10.2 17 Nordeste 49 Este 0 -- -- 11
2020-11-20 17:00:00 10.1 26 Este 49 Nordeste 0 -- -- 10
2020-11-20 16:00:00 11.8 21 Este 45 Nordeste 0 -- -- 12
2020-11-20 15:00:00 12.7 24 Este 52 Este 0 -- -- 14
2020-11-20 14:00:00 12.6 26 Este 55 Este 0 -- -- 16
2020-11-20 13:00:00 12.7 24 Este 62 Este 0 -- -- 13
2020-11-20 12:00:00 12.1 23 Este 54 Este 0 -- -- 13
2020-11-20 11:00:00 10.8 26 Este 50 Este 0 -- -- 10
2020-11-20 10:00:00 8.8 19 Este 39 Nordeste 0 -- -- 12
2020-11-20 09:00:00 7.7 14 Nordeste 48 Este 0 -- -- 13
2020-11-20 08:00:00 7.9 13 Nordeste 44 Nordeste 0 -- -- 13
2020-11-20 07:00:00 8 7 Nordeste 31 Nordeste 0 -- -- 14
2020-11-20 06:00:00 6 5 Nordeste 24 Norte 0 -- -- 21
2020-11-20 05:00:00 3.7 3 Sudeste 26 Oeste 0 -- -- 38
2020-11-20 04:00:00 5.4 6 Norte 25 Norte 0 -- -- 22
2020-11-20 03:00:00 6.6 10 Nordeste 19 Sudeste 0 -- -- 29
2020-11-20 02:00:00 6.6 7 Nordeste 29 Este 0 -- -- 31
2020-11-20 01:00:00 7.5 13 Nordeste 23 Este 0 -- -- 39
2020-11-20 00:00:00 9.2 16 Este 51 Este 0 -- -- 34
2020-11-19 23:00:00 9.8 28 Este 49 Este 0 -- -- 36
2020-11-19 22:00:00 7.9 12 Nordeste 24 Este 0 -- -- 34
2020-11-19 21:00:00 6.7 4 Sur 14 Este 0 -- -- 54
2020-11-19 20:00:00 9.9 6 Nordeste 20 Norte 0 -- -- 45
2020-11-19 19:00:00 10.8 8 Este 30 Noroeste 0 -- -- 48
2020-11-19 18:00:00 12.5 7 Nordeste 37 Norte 0 -- -- 46
2020-11-19 17:00:00 14.3 11 Nordeste 42 Oeste 0 -- -- 43
2020-11-19 16:00:00 16.8 12 Nordeste 39 Nordeste 0 -- -- 46
2020-11-19 15:00:00 17.3 16 Nordeste 38 Nordeste 0 -- -- 47
2020-11-19 14:00:00 17.6 18 Este 33 Nordeste 0 -- -- 48
2020-11-19 13:00:00 18.7 12 Este 27 Este 0 -- -- 43
2020-11-19 12:00:00 15.9 7 Este 17 Este 0 -- -- 53
2020-11-19 11:00:00 10.1 2 Sur 10 Sudoeste 0 -- -- 82
2020-11-19 10:00:00 3.4 3 Sudoeste 8 Sudoeste 0 -- -- 100
2020-11-19 09:00:00 0.9 0 Calma 8 Sudeste 0 -- -- 99
2020-11-19 08:00:00 0.4 3 Norte 9 Sudeste 0 -- -- 98
2020-11-19 07:00:00 0.9 0 Calma 6 Sudeste 0 -- -- 97
2020-11-19 06:00:00 1.6 3 Este 10 Norte 0 -- -- 98
2020-11-19 05:00:00 1.6 5 Nordeste 11 Este 0 -- -- 99
2020-11-19 04:00:00 1.3 4 Noroeste 8 Norte 0 -- -- 99
2020-11-19 03:00:00 1.2 2 Sudeste 8 Sudeste 0 -- -- 96
2020-11-19 02:00:00 1.6 2 Este 7 Sudeste 0 -- -- 96
2020-11-19 01:00:00 2.1 3 Este 8 Noroeste 0 -- -- 95
2020-11-19 00:00:00 2.6 2 Norte 10 Norte 0 -- -- 95
2020-11-18 23:00:00 3 4 Noroeste 7 Noroeste 0 -- -- 94
2020-11-18 22:00:00 3.3 0 Calma 9 Sudeste 0 -- -- 93
2020-11-18 21:00:00 4.1 2 Oeste 5 Sudeste 0 -- -- 89
2020-11-18 20:00:00 5 0 Calma 5 Sudeste 0 -- -- 88
2020-11-18 19:00:00 6.8 0 Calma 2 Este 0 -- -- 82
2020-11-18 18:00:00 9.5 0 Calma 3 Sudeste 0 -- -- 75
2020-11-18 17:00:00 13.5 3 Este 19 Oeste 0 -- -- 63
2020-11-18 16:00:00 17.9 12 Oeste 20 Oeste 0 -- -- 49
2020-11-18 15:00:00 19 12 Sudoeste 21 Oeste 0 -- -- 45
2020-11-18 14:00:00 18.8 4 Sur 8 Sur 0 -- -- 43
2020-11-18 13:00:00 16.1 4 Sur 9 Sur 0 -- -- 50
2020-11-18 12:00:00 12.9 3 Sudeste 6 Sudeste 0 -- -- 59
2020-11-18 11:00:00 7.4 0 Calma 5 Sudoeste 0 -- -- 87
2020-11-18 10:00:00 0.6 0 Calma 3 Sudeste 0 -- -- 100
2020-11-18 09:00:00 -0.1 0 Calma 3 Este 0 -- -- 100
2020-11-18 08:00:00 -0.3 0 Calma 4 Sudoeste 0 -- -- 99
2020-11-18 07:00:00 -0.2 0 Calma 4 Sudeste 0 -- -- 99
2020-11-18 06:00:00 -0.2 0 Calma 4 Sudeste 0 -- -- 98
2020-11-18 05:00:00 0.1 0 Calma 3 Sudeste 0 -- -- 98
2020-11-18 04:00:00 0.4 0 Calma 4 Este 0 -- -- 98
2020-11-18 03:00:00 0.6 0 Calma 4 Este 0 -- -- 98
2020-11-18 02:00:00 1 0 Calma 3 Sudeste 0 -- -- 97
2020-11-18 01:00:00 1.4 0 Calma 2 Noroeste 0 -- -- 96
2020-11-18 00:00:00 1.8 0 Calma 3 Sudeste 0 -- -- 95
2020-11-17 23:00:00 2.3 0 Calma 3 Noroeste 0 -- -- 93
2020-11-17 22:00:00 3.1 0 Calma 3 Sudeste 0 -- -- 91
2020-11-17 21:00:00 3.9 0 Calma 3 Sudeste 0 -- -- 89
2020-11-17 20:00:00 5.1 0 Calma 2 Sudeste 0 -- -- 86
2020-11-17 19:00:00 6.7 0 Calma 2 Sudeste 0 -- -- 83
2020-11-17 18:00:00 9.3 0 Calma 3 Sur 0 -- -- 73
2020-11-17 17:00:00 13.1 0 Calma 18 Oeste 0 -- -- 62
2020-11-17 16:00:00 17.7 13 Sudoeste 21 Oeste 0 -- -- 46
2020-11-17 15:00:00 18.9 7 Sudoeste 15 Sudoeste 0 -- -- 41
2020-11-17 14:00:00 18.6 5 Sur 9 Sur 0 -- -- 45
2020-11-17 13:00:00 16.6 3 Sudeste 9 Sudoeste 0 -- -- 46
2020-11-17 12:00:00 12.9 2 Sudeste 9 Este 0 -- -- 58
2020-11-17 11:00:00 8.2 2 Sudeste 4 Sur 0 -- -- 75
2020-11-17 10:00:00 1.2 3 Sudeste 4 Sur 0 -- -- 100
2020-11-17 09:00:00 -0.1 0 Calma 4 Norte 0 -- -- 97
2020-11-17 08:00:00 -0.3 0 Calma 4 Oeste 0 -- -- 97
2020-11-17 07:00:00 -0.2 0 Calma 5 Sudeste 0 -- -- 97
2020-11-17 06:00:00 -0.2 0 Calma 6 Norte 0 -- -- 95
2020-11-17 05:00:00 -0.2 0 Calma 5 Sudeste 0 -- -- 95
2020-11-17 04:00:00 0 2 Este 5 Sudeste 0 -- -- 93
2020-11-17 03:00:00 0.2 2 Norte 6 Sur 0 -- -- 93
2020-11-17 02:00:00 0.2 3 Norte 5 Sudeste 0 -- -- 90
2020-11-17 01:00:00 0.6 0 Calma 5 Sudeste 0 -- -- 88
2020-11-17 00:00:00 1.2 2 Nordeste 4 Norte 0 -- -- 89
2020-11-16 23:00:00 1.7 0 Calma 5 Sur 0 -- -- 85
2020-11-16 22:00:00 2.5 2 Norte 9 Sudeste 0 -- -- 81
2020-11-16 21:00:00 3.2 3 Sudeste 6 Este 0 -- -- 81
2020-11-16 20:00:00 4.7 3 Nordeste 6 Sudeste 0 -- -- 80
2020-11-16 19:00:00 6.3 0 Calma 5 Sudeste 0 -- -- 78
2020-11-16 18:00:00 9.2 0 Calma 9 Oeste 0 -- -- 66
2020-11-16 17:00:00 13.5 8 Oeste 18 Oeste 0 -- -- 63
2020-11-16 16:00:00 15.4 11 Oeste 23 Sudoeste 0 -- -- 64
2020-11-16 15:00:00 16.7 12 Sudoeste 21 Sudoeste 0 -- -- 51
2020-11-16 14:00:00 17.3 8 Sudoeste 16 Oeste 0 -- -- 47
2020-11-16 13:00:00 15.4 3 Sudeste 5 Sur 0 -- -- 56
2020-11-16 12:00:00 12.1 2 Sudeste 7 Sudeste 0 -- -- 72
2020-11-16 11:00:00 8.1 4 Sudeste 7 Sudeste 0 -- -- 97
2020-11-16 10:00:00 3.3 2 Nordeste 9 Sudeste 0 -- -- 100
2020-11-16 09:00:00 1.8 0 Calma 5 Norte 0 -- -- 100
2020-11-16 08:00:00 2.2 3 Este 7 Sudeste 0 -- -- 100
2020-11-16 07:00:00 2.8 0 Calma 5 Sudeste 0 -- -- 99
2020-11-16 06:00:00 3.5 3 Este 6 Sudeste 0 -- -- 99
2020-11-16 05:00:00 4.2 0 Calma 6 Sudeste 0 -- -- 98
2020-11-16 04:00:00 5.7 0 Calma 8 Este 0 -- -- 98
2020-11-16 03:00:00 7.2 0 Calma 9 Norte 0 -- -- 97
2020-11-16 02:00:00 7.9 2 Nordeste 7 Sudeste 0.2 -- -- 96
2020-11-16 01:00:00 8.8 0 Calma 5 Sudeste 0.2 -- -- 95
2020-11-16 00:00:00 8.9 2 Nordeste 6 Sur 0 -- -- 92
2020-11-15 23:00:00 8.8 0 Calma 8 Este 0 -- -- 91
2020-11-15 22:00:00 8.6 4 Oeste 9 Sudeste 0 -- -- 90
2020-11-15 21:00:00 8.5 2 Nordeste 6 Sur 0 -- -- 91
2020-11-15 20:00:00 8.4 0 Calma 6 Este 0 -- -- 89
2020-11-15 19:00:00 8.9 0 Calma 8 Este 0 -- -- 86
2020-11-15 18:00:00 10.6 3 Nordeste 5 Sudeste 0 -- -- 80
2020-11-15 17:00:00 13.2 2 Sudoeste 17 Sudoeste 0 -- -- 71
2020-11-15 16:00:00 14.1 8 Oeste 18 Oeste 0 -- -- 66
2020-11-15 15:00:00 14.6 13 Sudoeste 27 Sudoeste 0 -- -- 65
2020-11-15 14:00:00 15.5 13 Sudoeste 20 Sudoeste 0 -- -- 60
2020-11-15 13:00:00 15.5 4 Sur 19 Sudoeste 0 -- -- 55
2020-11-15 12:00:00 12.3 0 Calma 9 Nordeste 0 -- -- 58
2020-11-15 11:00:00 8.6 3 Sur 6 Sudoeste 0 -- -- 80
2020-11-15 10:00:00 2.9 3 Sudeste 7 Sudeste 0 -- -- 100
2020-11-15 09:00:00 1.1 0 Calma 6 Sudeste 0 -- -- 100
2020-11-15 08:00:00 1 0 Calma 6 Sudeste 0 -- -- 99
2020-11-15 07:00:00 1 0 Calma 12 Este 0 -- -- 100
2020-11-15 06:00:00 1 0 Calma 5 Norte 0 -- -- 99
2020-11-15 05:00:00 1.7 2 Este 6 Sudeste 0 -- -- 98
2020-11-15 04:00:00 2.5 0 Calma 4 Sur 0 -- -- 98
2020-11-15 03:00:00 3 0 Calma 4 Sudeste 0 -- -- 98
2020-11-15 02:00:00 3.4 2 Norte 5 Norte 0 -- -- 96
2020-11-15 01:00:00 4.7 2 Sur 5 Sudeste 0 -- -- 94
2020-11-15 00:00:00 5.7 0 Calma 4 Sudeste 0 -- -- 95
2020-11-14 23:00:00 5.9 0 Calma 4 Este 0 -- -- 94
2020-11-14 22:00:00 5.5 2 Este 5 Sur 0 -- -- 92
2020-11-14 21:00:00 5.6 0 Calma 4 Sudeste 0 -- -- 89
2020-11-14 20:00:00 6.2 0 Calma 3 Este 0 -- -- 87
2020-11-14 19:00:00 7.4 0 Calma 3 Norte 0 -- -- 82
2020-11-14 18:00:00 9.4 0 Calma 13 Oeste 0 -- -- 74
2020-11-14 17:00:00 12.1 9 Oeste 20 Sudoeste 0 -- -- 65
2020-11-14 16:00:00 13.4 12 Sudoeste 22 Oeste 0 -- -- 58
2020-11-14 15:00:00 15.3 11 Sudoeste 22 Sudoeste 0 -- -- 38
2020-11-14 14:00:00 15.6 8 Sudoeste 16 Sudoeste 0 -- -- 41
2020-11-14 13:00:00 14.3 7 Sudoeste 16 Sudoeste 0 -- -- 47
2020-11-14 12:00:00 10.7 4 Sudeste 8 Este 0 -- -- 63
2020-11-14 11:00:00 5.9 5 Sudoeste 11 Sudoeste 0 -- -- 84
2020-11-14 10:00:00 0.4 0 Calma -- -- 0 -- -- 100
2020-11-14 09:00:00 -1.6 0 Calma -- -- 0 -- -- 99
2020-11-14 08:00:00 -1.6 0 Calma -- -- 0 -- -- 99
2020-11-14 07:00:00 -1.6 0 Calma 0 Calma 0 -- -- 98
2020-11-14 06:00:00 -1.1 0 Calma 3 Nordeste 0 -- -- 98
2020-11-14 05:00:00 -0.9 0 Calma 2 Nordeste 0 -- -- 98
2020-11-14 04:00:00 -0.6 0 Calma 3 Nordeste 0 -- -- 97
2020-11-14 03:00:00 -0.4 0 Calma 3 Sudeste 0 -- -- 97
2020-11-14 02:00:00 0 0 Calma 4 Sudoeste 0 -- -- 96
2020-11-14 01:00:00 0.4 0 Calma 3 Sudeste 0 -- -- 95
2020-11-14 00:00:00 0.9 0 Calma 3 Nordeste 0 -- -- 94
2020-11-13 23:00:00 1.4 0 Calma 3 Nordeste 0 -- -- 93
2020-11-13 22:00:00 2.3 0 Calma 3 Norte 0 -- -- 93
2020-11-13 21:00:00 3 0 Calma 4 Sudeste 0 -- -- 89
2020-11-13 20:00:00 4.1 0 Calma 3 Sudeste 0 -- -- 85
2020-11-13 19:00:00 6 0 Calma 2 Este 0 -- -- 80
2020-11-13 18:00:00 8.7 0 Calma 18 Oeste 0 -- -- 70
2020-11-13 17:00:00 13 9 Oeste 19 Oeste 0 -- -- 49
2020-11-13 16:00:00 15.6 10 Oeste 18 Oeste 0 -- -- 40
2020-11-13 15:00:00 16 10 Oeste 21 Oeste 0 -- -- 40
2020-11-13 14:00:00 15 13 Oeste 22 Oeste 0 -- -- 42
2020-11-13 13:00:00 14.1 14 Sudoeste 22 Sudoeste 0 -- -- 47
2020-11-13 12:00:00 12.4 12 Sudoeste 21 Oeste 0 -- -- 54
2020-11-13 11:00:00 9.6 5 Sudoeste 9 Sudoeste 0 -- -- 70
2020-11-13 10:00:00 5.3 0 Calma 5 Oeste 0 -- -- 91
2020-11-13 09:00:00 3.5 3 Este 7 Sudeste 0 -- -- 97
2020-11-13 08:00:00 2.8 3 Este 6 Oeste 0 -- -- 97
2020-11-13 07:00:00 2.6 0 Calma 5 Sudeste 0 -- -- 96
2020-11-13 06:00:00 2.7 2 Este 4 Sudeste 0 -- -- 95
2020-11-13 05:00:00 2.4 4 Este 9 Nordeste 0 -- -- 99
2020-11-13 04:00:00 1.5 0 Calma 3 Noroeste 0 -- -- 98
2020-11-13 03:00:00 1 0 Calma 8 Oeste 0 -- -- 98
2020-11-13 02:00:00 0.3 0 Calma 0 Calma 0 -- -- 97
2020-11-13 01:00:00 0.5 0 Calma -- -- 0 -- -- 96
2020-11-13 00:00:00 0.9 0 Calma -- -- 0 -- -- 94
2020-11-12 23:00:00 1.7 0 Calma 0 Calma 0 -- -- 95
2020-11-12 22:00:00 2.1 0 Calma 2 Sudeste 0 -- -- 92
2020-11-12 21:00:00 3.1 0 Calma 3 Sudeste 0 -- -- 90
2020-11-12 20:00:00 4.1 0 Calma 3 Sudeste 0 -- -- 85
2020-11-12 19:00:00 5.8 0 Calma 4 Sudeste 0 -- -- 79
2020-11-12 18:00:00 8.8 0 Calma 21 Oeste 0 -- -- 68
2020-11-12 17:00:00 13.3 10 Oeste 21 Oeste 0 -- -- 48
2020-11-12 16:00:00 16 13 Oeste 23 Oeste 0 -- -- 38
2020-11-12 15:00:00 16.8 14 Sudoeste 24 Oeste 0 -- -- 37
2020-11-12 14:00:00 16.8 12 Oeste 18 Oeste 0 -- -- 37
2020-11-12 13:00:00 14.6 3 Sudeste 8 Sudeste 0 -- -- 49
2020-11-12 12:00:00 12.3 3 Sudeste 5 Sudeste 0 -- -- 55
2020-11-12 11:00:00 8.8 3 Sudeste 5 Sudeste 0 -- -- 73
2020-11-12 10:00:00 3.7 2 Sudeste 5 Sudeste 0 -- -- 100
2020-11-12 09:00:00 1.7 2 Sudeste 5 Sudeste 0 -- -- 99
2020-11-12 08:00:00 1.6 0 Calma 3 Nordeste 0 -- -- 98
2020-11-12 07:00:00 2.1 0 Calma 3 Sudeste 0 -- -- 96
2020-11-12 06:00:00 2.9 0 Calma 4 Norte 0 -- -- 95
2020-11-12 05:00:00 3.6 2 Sudeste 14 Sudoeste 0 -- -- 93
2020-11-12 04:00:00 3.2 3 Noroeste 5 Sudeste 0 -- -- 98
2020-11-12 03:00:00 2.8 0 Calma 6 Norte 0 -- -- 97
2020-11-12 02:00:00 3 2 Norte 6 Nordeste 0 -- -- 98
2020-11-12 01:00:00 2.8 2 Norte 6 Sur 0 -- -- 97
2020-11-12 00:00:00 2.7 4 Sudeste 8 Sudeste 0 -- -- 96
2020-11-11 23:00:00 2.9 2 Oeste 4 Sudeste 0 -- -- 96
2020-11-11 22:00:00 3.3 0 Calma 5 Nordeste 0 -- -- 94
2020-11-11 21:00:00 4 0 Calma 6 Sudeste 0 -- -- 92
2020-11-11 20:00:00 5.2 0 Calma 4 Norte 0 -- -- 88
2020-11-11 19:00:00 6.4 0 Calma 4 Sudeste 0 -- -- 85
2020-11-11 18:00:00 8.6 2 Sur 15 Oeste 0 -- -- 77
2020-11-11 17:00:00 12.8 8 Oeste 18 Sudoeste 0 -- -- 59
2020-11-11 16:00:00 14.2 10 Oeste 22 Sudoeste 0 -- -- 55
2020-11-11 15:00:00 15.7 14 Sudoeste 25 Sudoeste 0 -- -- 53
2020-11-11 14:00:00 15.5 12 Sudoeste 22 Sudoeste 0 -- -- 49
2020-11-11 13:00:00 14.6 13 Sudoeste 19 Oeste 0 -- -- 54
2020-11-11 12:00:00 11.3 3 Sur 6 Sudeste 0 -- -- 60
2020-11-11 11:00:00 7.3 2 Sudeste 5 Sur 0 -- -- 79
2020-11-11 10:00:00 2.4 0 Calma 4 Sudeste 0 -- -- 100
2020-11-11 09:00:00 -0.2 2 Este 4 Sur 0 -- -- 100
2020-11-11 08:00:00 -0.9 0 Calma 4 Este 0 -- -- 100
2020-11-11 07:00:00 -0.7 0 Calma 2 Noroeste 0 -- -- 100
2020-11-11 06:00:00 -0.4 0 Calma 3 Nordeste 0 -- -- 100
2020-11-11 05:00:00 -0.2 0 Calma 3 Nordeste 0 -- -- 99
2020-11-11 04:00:00 0.2 0 Calma 3 Este 0 -- -- 98
2020-11-11 03:00:00 0.4 0 Calma 4 Este 0 -- -- 98
2020-11-11 02:00:00 1.1 0 Calma 3 Norte 0 -- -- 98
2020-11-11 01:00:00 1.6 0 Calma 5 Norte 0 -- -- 97
2020-11-11 00:00:00 2.1 0 Calma 2 Nordeste 0 -- -- 97
2020-11-10 23:00:00 2.5 0 Calma 3 Sudeste 0 -- -- 96
2020-11-10 22:00:00 3.1 0 Calma 4 Sudeste 0 -- -- 93
2020-11-10 21:00:00 4.3 0 Calma 4 Sudeste 0 -- -- 91
2020-11-10 20:00:00 6 2 Oeste 5 Sudeste 0 -- -- 87
2020-11-10 19:00:00 8.1 2 Sudoeste 5 Sudeste 0 -- -- 84
2020-11-10 18:00:00 9.9 0 Calma 12 Oeste 0 -- -- 81
2020-11-10 17:00:00 11.5 0 Calma 12 Sudoeste 0 -- -- 73
2020-11-10 16:00:00 13.2 3 Oeste 14 Oeste 0 -- -- 64
2020-11-10 15:00:00 14.5 9 Oeste 21 Sudoeste 0 -- -- 52
2020-11-10 14:00:00 15.5 10 Sudoeste 21 Oeste 0 -- -- 51
2020-11-10 13:00:00 15.2 12 Sudoeste 21 Sudoeste 0 -- -- 51
2020-11-10 12:00:00 13.2 4 Sudeste 12 Sur 0 -- -- 59
2020-11-10 11:00:00 8.6 4 Sudeste 8 Sudeste 0 -- -- 81
2020-11-10 10:00:00 2.5 2 Sudoeste 5 Sudeste 0 -- -- 100
2020-11-10 09:00:00 -0.3 2 Este 5 Sudoeste 0 -- -- 100
2020-11-10 08:00:00 -0.5 0 Calma 6 Este 0 -- -- 100
2020-11-10 07:00:00 -0.3 2 Nordeste 5 Este 0 -- -- 100
2020-11-10 06:00:00 -0.4 0 Calma 5 Sudeste 0 -- -- 100
2020-11-10 05:00:00 -0.1 2 Este 5 Este 0 -- -- 100
2020-11-10 04:00:00 0.2 0 Calma 5 Sudeste 0 -- -- 99
2020-11-10 03:00:00 0.6 0 Calma 5 Sur 0 -- -- 99
2020-11-10 02:00:00 1.4 0 Calma 6 Norte 0 -- -- 100
2020-11-10 01:00:00 1.8 0 Calma 5 Sudeste 0 -- -- 98
2020-11-10 00:00:00 2.4 0 Calma 4 Nordeste 0 -- -- 97
2020-11-09 23:00:00 3 2 Nordeste 5 Sudeste 0 -- -- 95
2020-11-09 22:00:00 4.1 0 Calma 4 Sudeste 0 -- -- 96
2020-11-09 21:00:00 5.2 2 Nordeste 4 Norte 0 -- -- 94
2020-11-09 20:00:00 6.6 0 Calma 5 Este 0 -- -- 90
2020-11-09 19:00:00 7.9 2 Sudoeste 5 Sudoeste 0 -- -- 85
2020-11-09 18:00:00 10.3 0 Calma 12 Oeste 0 -- -- 75
2020-11-09 17:00:00 12.9 8 Oeste 23 Sudoeste 0 -- -- 64
2020-11-09 16:00:00 15 14 Sudoeste 24 Oeste 0 -- -- 60
2020-11-09 15:00:00 16.2 14 Sudoeste 22 Sudoeste 0 -- -- 49
2020-11-09 14:00:00 16 10 Oeste 19 Sudoeste 0 -- -- 49
2020-11-09 13:00:00 14.5 4 Sudeste 8 Sur 0 -- -- 57
2020-11-09 12:00:00 11.7 3 Sudeste 8 Sur 0 -- -- 63
2020-11-09 11:00:00 8.6 4 Sudeste 6 Este 0 -- -- 73
2020-11-09 10:00:00 4.3 2 Sudeste 4 Este 0 -- -- 100
2020-11-09 09:00:00 0.4 0 Calma 3 Sudeste 0 -- -- 100
2020-11-09 08:00:00 0 0 Calma 3 Sudeste 0 -- -- 100
2020-11-09 07:00:00 0.1 0 Calma 4 Norte 0 -- -- 100
2020-11-09 06:00:00 0.1 0 Calma 4 Este 0 -- -- 100
2020-11-09 05:00:00 0.3 3 Nordeste 5 Este 0 -- -- 100
2020-11-09 04:00:00 0.5 0 Calma 4 Noroeste 0 -- -- 100
2020-11-09 03:00:00 0.9 0 Calma 3 Sudeste 0 -- -- 99
2020-11-09 02:00:00 1.7 0 Calma 3 Este 0 -- -- 99
2020-11-09 01:00:00 2.2 0 Calma 4 Sudeste 0 -- -- 98
2020-11-09 00:00:00 3.2 0 Calma 3 Norte 0 -- -- 99
2020-11-08 23:00:00 4.1 0 Calma 4 Sudeste 0 -- -- 97
2020-11-08 22:00:00 5.2 0 Calma 4 Norte 0 -- -- 98
2020-11-08 21:00:00 5.3 0 Calma 2 Sudeste 0 -- -- 97
2020-11-08 20:00:00 5.7 0 Calma 5 Sudeste 0 -- -- 93
2020-11-08 19:00:00 7.3 0 Calma 3 Noroeste 0 -- -- 89
2020-11-08 18:00:00 10 0 Calma 11 Oeste 0 -- -- 82
2020-11-08 17:00:00 12.5 6 Oeste 21 Sudoeste 0 -- -- 72
2020-11-08 16:00:00 13.6 12 Sudoeste 24 Sudoeste 0 -- -- 68
2020-11-08 15:00:00 15.4 16 Sudoeste 26 Oeste 0 -- -- 62
2020-11-08 14:00:00 14.5 14 Sudoeste 25 Oeste 0 -- -- 62
2020-11-08 13:00:00 13.4 3 Sur 11 Sudoeste 0 -- -- 68
2020-11-08 12:00:00 10.8 7 Sudoeste 15 Sudoeste 0 -- -- 83
2020-11-08 11:00:00 9 2 Sudeste 12 Sudoeste 0 -- -- 91
2020-11-08 10:00:00 5.1 0 Calma 6 Sudeste 0 -- -- 100
2020-11-08 09:00:00 1.9 0 Calma 3 Este 0 -- -- 100
2020-11-08 08:00:00 2 0 Calma 4 Este 0 -- -- 100
2020-11-08 07:00:00 2.5 0 Calma 3 Norte 0 -- -- 100
2020-11-08 06:00:00 3.4 0 Calma 2 Noroeste 0 -- -- 100
2020-11-08 05:00:00 4.5 0 Calma 3 Norte 0 -- -- 99
2020-11-08 04:00:00 5.9 0 Calma 5 Sudeste 0 -- -- 99
2020-11-08 03:00:00 7 0 Calma 3 Este 0 -- -- 100
2020-11-08 02:00:00 7.1 0 Calma 3 Norte 0 -- -- 100
2020-11-08 01:00:00 7.1 0 Calma 3 Sudeste 0 -- -- 99
2020-11-08 00:00:00 7.3 0 Calma 4 Sudoeste 0 -- -- 98
2020-11-07 23:00:00 7.6 0 Calma 7 Nordeste 0.2 -- -- 96
2020-11-07 22:00:00 8.1 5 Este 8 Nordeste 4.2 -- -- 98
2020-11-07 21:00:00 8.7 0 Calma 3 Sur 3.4 -- -- 99
2020-11-07 20:00:00 9 0 Calma 4 Este 1.8 -- -- 97
2020-11-07 19:00:00 9.6 0 Calma 17 Oeste 0.6 -- -- 94
2020-11-07 18:00:00 9.7 6 Oeste 18 Oeste 0.2 -- -- 94
2020-11-07 17:00:00 10 6 Sudoeste 15 Oeste 0 -- -- 93
2020-11-07 16:00:00 10.3 6 Oeste 12 Oeste 0.2 -- -- 91
2020-11-07 15:00:00 10.2 6 Oeste 30 Oeste 2.8 -- -- 91
2020-11-07 14:00:00 11 15 Oeste 32 Oeste 7.2 -- -- 87
2020-11-07 13:00:00 11.7 19 Oeste 55 Sudoeste 6.2 -- -- 83
2020-11-07 12:00:00 12.3 14 Oeste 48 Oeste 6.4 -- -- 84
2020-11-07 11:00:00 11.1 4 Oeste 25 Noroeste 5.2 -- -- 95
2020-11-07 10:00:00 11.1 12 Norte 39 Noroeste 2.8 -- -- 88
2020-11-07 09:00:00 9.8 5 Noroeste 18 Sur 0.2 -- -- 98
2020-11-07 08:00:00 9.6 6 Sur 12 Norte 0.2 -- -- 98
2020-11-07 07:00:00 9.7 5 Norte 18 Norte 0.2 -- -- 97
2020-11-07 06:00:00 9.5 5 Este 13 Nordeste 0 -- -- 97
2020-11-07 05:00:00 9.8 3 Sudoeste 11 Nordeste 0.2 -- -- 96
2020-11-07 04:00:00 10.1 5 Nordeste 13 Norte 0.2 -- -- 93
2020-11-07 03:00:00 10.2 6 Oeste 15 Sudoeste 0 -- -- 91
2020-11-07 02:00:00 10.6 8 Sudoeste 17 Sudoeste 0 -- -- 89
2020-11-07 01:00:00 11 8 Sudoeste 18 Oeste 0 -- -- 86
2020-11-07 00:00:00 10.4 4 Sudoeste 23 Sudoeste 0 -- -- 93
2020-11-06 23:00:00 10 2 Oeste 14 Nordeste 0 -- -- 97
2020-11-06 22:00:00 9.7 4 Nordeste 8 Sudeste 0 -- -- 97
2020-11-06 21:00:00 10.1 3 Oeste 7 Este 0 -- -- 95
2020-11-06 20:00:00 10.7 0 Calma 5 Este 0 -- -- 92
2020-11-06 19:00:00 11.8 0 Calma 10 Oeste 0 -- -- 88
2020-11-06 18:00:00 12.8 3 Sur 19 Oeste 0 -- -- 82
2020-11-06 17:00:00 14.2 10 Oeste 22 Oeste 0 -- -- 73
2020-11-06 16:00:00 15.8 8 Oeste 16 Sudoeste 0 -- -- 70
2020-11-06 15:00:00 16.1 4 Sudoeste 10 Sudoeste 0 -- -- 71
2020-11-06 14:00:00 15.8 3 Sudoeste 8 Este 0 -- -- 74
2020-11-06 13:00:00 13.8 4 Este 9 Este 0 -- -- 79
2020-11-06 12:00:00 11.8 0 Calma 9 Oeste 0 -- -- 90
2020-11-06 11:00:00 10.1 2 Norte 5 Norte 0 -- -- 98
2020-11-06 10:00:00 8.9 0 Calma 5 Noroeste 0 -- -- 100
2020-11-06 09:00:00 8.1 3 Este 8 Oeste 0 -- -- 100
2020-11-06 08:00:00 7.6 2 Este 9 Nordeste 0.4 -- -- 100
2020-11-06 07:00:00 7.8 4 Nordeste 10 Sudoeste 0.8 -- -- 100
2020-11-06 06:00:00 7.8 2 Norte 7 Este 0 -- -- 100
2020-11-06 05:00:00 7.8 0 Calma 6 Sudeste 1 -- -- 100
2020-11-06 04:00:00 7.8 0 Calma 7 Nordeste 2 -- -- 100
2020-11-06 03:00:00 7.9 3 Oeste 5 Oeste 2.2 -- -- 99
2020-11-06 02:00:00 8.1 0 Calma 9 Nordeste 1.2 -- -- 98
2020-11-06 01:00:00 8.1 5 Oeste 16 Sudoeste 0.6 -- -- 98
2020-11-06 00:00:00 7.4 3 Oeste 12 Norte 0 -- -- 99
2020-11-05 23:00:00 6.7 2 Sur 8 Norte 0 -- -- 97
2020-11-05 22:00:00 6.3 3 Este 7 Sudoeste 0 -- -- 97
2020-11-05 21:00:00 6.4 4 Nordeste 9 Oeste 0 -- -- 94
2020-11-05 20:00:00 7.2 4 Nordeste 10 Sudeste 0 -- -- 93
2020-11-05 19:00:00 8.5 0 Calma 9 Sudeste 0 -- -- 88
2020-11-05 18:00:00 11.2 3 Sudeste 6 Sudeste 0 -- -- 82
2020-11-05 17:00:00 13.8 2 Este 17 Oeste 0 -- -- 69
2020-11-05 16:00:00 15.5 9 Oeste 17 Oeste 0 -- -- 55
2020-11-05 15:00:00 17.2 11 Sudoeste 20 Oeste 0 -- -- 52
2020-11-05 14:00:00 16.8 10 Oeste 18 Sudoeste 0 -- -- 53
2020-11-05 13:00:00 14.3 4 Sudeste 8 Sudeste 0 -- -- 67
2020-11-05 12:00:00 12.5 3 Sudeste 11 Sudeste 0 -- -- 71
2020-11-05 11:00:00 9.2 3 Sudeste 8 Este 0 -- -- 85
2020-11-05 10:00:00 4.8 4 Sudoeste 6 Sudeste 0 -- -- 100
2020-11-05 09:00:00 1.4 4 Oeste 9 Noroeste 0 -- -- 100
2020-11-05 08:00:00 1 0 Calma 6 Norte 0 -- -- 100
2020-11-05 07:00:00 1.3 0 Calma 4 Noroeste 0 -- -- 100
2020-11-05 06:00:00 1.7 0 Calma 4 Norte 0 -- -- 100
2020-11-05 05:00:00 2.4 3 Nordeste 4 Sudeste 0 -- -- 100
2020-11-05 04:00:00 3.2 0 Calma 6 Sudeste 0 -- -- 100
2020-11-05 03:00:00 3.6 0 Calma 8 Sur 0 -- -- 99
2020-11-05 02:00:00 3.9 2 Este 6 Noroeste 0 -- -- 98
2020-11-05 01:00:00 5.2 0 Calma 6 Oeste 0 -- -- 97
2020-11-05 00:00:00 6.2 2 Sudoeste 5 Sudeste 0 -- -- 97
2020-11-04 23:00:00 6 3 Sur 6 Sudeste 0 -- -- 99
2020-11-04 22:00:00 5.7 0 Calma 6 Sudeste 0 -- -- 98
2020-11-04 21:00:00 5.8 0 Calma 5 Sudeste 0 -- -- 96
2020-11-04 20:00:00 6 2 Sudoeste 5 Sudoeste 0 -- -- 95
2020-11-04 19:00:00 6.6 2 Este 6 Sudeste 0 -- -- 92
2020-11-04 18:00:00 7.6 0 Calma 4 Sudoeste 0 -- -- 88
2020-11-04 17:00:00 8.1 3 Sudoeste 14 Oeste 0 -- -- 81
2020-11-04 16:00:00 8.3 8 Oeste 15 Oeste 0 -- -- 81
2020-11-04 15:00:00 8.2 10 Sudoeste 20 Sudoeste 0 -- -- 81
2020-11-04 14:00:00 8.6 12 Oeste 21 Oeste 0 -- -- 81
2020-11-04 13:00:00 7.9 7 Sudoeste 11 Sudoeste 0 -- -- 85
2020-11-04 12:00:00 7.3 5 Sudoeste 10 Sudoeste 0 -- -- 87
2020-11-04 11:00:00 7 3 Sudoeste 5 Sudoeste 0 -- -- 88
2020-11-04 10:00:00 5.7 0 Calma 2 Norte 0.6 -- -- 98
2020-11-04 09:00:00 5.2 0 Calma 3 Sudeste 1 -- -- 98
2020-11-04 08:00:00 5.2 0 Calma 5 Norte 0.8 -- -- 96
2020-11-04 07:00:00 5.4 0 Calma 10 Nordeste 1.8 -- -- 93
2020-11-04 06:00:00 6 0 Calma 5 Nordeste 2 -- -- 99
2020-11-04 05:00:00 6.2 0 Calma 3 Sudeste 2 -- -- 98
2020-11-04 04:00:00 6.5 0 Calma 4 Sudeste 1.2 -- -- 98
2020-11-04 03:00:00 7.1 0 Calma 6 Nordeste 1 -- -- 99
2020-11-04 02:00:00 7.4 0 Calma 17 Oeste 1.4 -- -- 99
2020-11-04 01:00:00 7.1 3 Sudoeste 7 Sudoeste 0 -- -- 100
2020-11-04 00:00:00 7.1 2 Norte 3 Norte 0 -- -- 99
2020-11-03 23:00:00 7.3 3 Oeste 6 Este 0 -- -- 99
2020-11-03 22:00:00 7.1 2 Nordeste 5 Nordeste 0 -- -- 99
2020-11-03 21:00:00 7.3 0 Calma 6 Oeste 0 -- -- 98
2020-11-03 20:00:00 7.6 2 Oeste 6 Norte 0 -- -- 97
2020-11-03 19:00:00 8.4 3 Norte 7 Sudeste 0 -- -- 96
2020-11-03 18:00:00 9.2 2 Noroeste 6 Sur 1.2 -- -- 98
2020-11-03 17:00:00 9.6 0 Calma 5 Noroeste 0.6 -- -- 97
2020-11-03 16:00:00 9.9 0 Calma 4 Este 1 -- -- 94
2020-11-03 15:00:00 10.5 0 Calma 11 Sur 0.8 -- -- 93
2020-11-03 14:00:00 11.5 6 Oeste 19 Oeste 3.8 -- -- 95
2020-11-03 13:00:00 11.5 3 Sudoeste 13 Noroeste 0.4 -- -- 94
2020-11-03 12:00:00 11.6 4 Oeste 9 Sudoeste 0.8 -- -- 90
2020-11-03 11:00:00 11.1 0 Calma 9 Oeste 0 -- -- 88
2020-11-03 10:00:00 9.5 0 Calma 5 Sudoeste 0 -- -- 100
2020-11-03 09:00:00 8.1 0 Calma 4 Noroeste 0 -- -- 100
2020-11-03 08:00:00 7 2 Este 6 Sudoeste 0 -- -- 100
2020-11-03 07:00:00 6 3 Norte 4 Norte 0 -- -- 100
2020-11-03 06:00:00 5 0 Calma 4 Norte 0 -- -- 98
2020-11-03 05:00:00 5.2 0 Calma 3 Sudeste 0 -- -- 97
2020-11-03 04:00:00 5.4 0 Calma 3 Noroeste 0 -- -- 96
2020-11-03 03:00:00 6 0 Calma 8 Sudoeste 0 -- -- 96
2020-11-03 02:00:00 6.8 0 Calma 3 Sudeste 0 -- -- 95
2020-11-03 01:00:00 7 0 Calma 6 Sudeste 0 -- -- 94
2020-11-03 00:00:00 7.9 0 Calma 4 Sudeste 0 -- -- 92
2020-11-02 23:00:00 9.2 0 Calma 4 Sudeste 0 -- -- 91
2020-11-02 22:00:00 9.5 0 Calma 4 Norte 0 -- -- 90
2020-11-02 21:00:00 9.4 3 Norte 5 Sudeste 0 -- -- 90
2020-11-02 20:00:00 9.6 0 Calma 4 Sudeste 0 -- -- 85
2020-11-02 19:00:00 11.5 0 Calma 4 Este 0 -- -- 81
2020-11-02 18:00:00 14.6 0 Calma 11 Noroeste 0 -- -- 71
2020-11-02 17:00:00 19 9 Oeste 20 Sudoeste 0 -- -- 55
2020-11-02 16:00:00 21.3 12 Oeste 21 Oeste 0 -- -- 49
2020-11-02 15:00:00 21.7 14 Sudoeste 27 Sudoeste 0 -- -- 48
2020-11-02 14:00:00 21.9 11 Oeste 21 Sudoeste 0 -- -- 46
2020-11-02 13:00:00 20.6 13 Oeste 21 Oeste 0 -- -- 50
2020-11-02 12:00:00 17.5 3 Sudeste 6 Sur 0 -- -- 61
2020-11-02 11:00:00 13.8 4 Sudeste 6 Sudeste 0 -- -- 74
2020-11-02 10:00:00 8 0 Calma 4 Sur 0 -- -- 100
2020-11-02 09:00:00 3 0 Calma 5 Sudoeste 0 -- -- 100
2020-11-02 08:00:00 2.4 0 Calma 3 Sudeste 0 -- -- 99
2020-11-02 07:00:00 2.4 0 Calma 4 Sudeste 0 -- -- 98
2020-11-02 06:00:00 2.5 0 Calma 2 Sur 0 -- -- 98
2020-11-02 05:00:00 3 0 Calma 2 Norte 0 -- -- 97
2020-11-02 04:00:00 2.9 0 Calma 2 Sudeste 0 -- -- 97
2020-11-02 03:00:00 3.2 0 Calma 3 Este 0 -- -- 95
2020-11-02 02:00:00 3.5 0 Calma 3 Norte 0 -- -- 95
2020-11-02 01:00:00 3.8 0 Calma 3 Este 0 -- -- 94
2020-11-02 00:00:00 4.3 0 Calma 3 Noroeste 0 -- -- 92
2020-11-01 23:00:00 5 0 Calma 2 Nordeste 0 -- -- 92
2020-11-01 22:00:00 5.5 0 Calma 3 Este 0 -- -- 88
2020-11-01 21:00:00 6.7 0 Calma 3 Sudeste 0 -- -- 87
2020-11-01 20:00:00 8 0 Calma 4 Sudeste 0 -- -- 83
2020-11-01 19:00:00 10.1 0 Calma 3 Norte 0 -- -- 78
2020-11-01 18:00:00 13.3 0 Calma 11 Oeste 0 -- -- 67
2020-11-01 17:00:00 18.5 12 Oeste 22 Oeste 0 -- -- 46
2020-11-01 16:00:00 20.6 12 Oeste 22 Sudoeste 0 -- -- 39
2020-11-01 15:00:00 21.6 12 Oeste 19 Oeste 0 -- -- 33
2020-11-01 14:00:00 20.7 10 Sudoeste 21 Sudoeste 0 -- -- 35
2020-11-01 13:00:00 20.3 6 Sur 11 Sur 0 -- -- 39
2020-11-01 12:00:00 16.9 4 Este 9 Sudoeste 0 -- -- 42
2020-11-01 11:00:00 13.5 5 Sudoeste 8 Sur 0 -- -- 55
2020-11-01 10:00:00 7.8 3 Sudeste 9 Sudeste 0 -- -- 83
2020-11-01 09:00:00 2.6 0 Calma 4 Norte 0 -- -- 97
2020-11-01 08:00:00 2 0 Calma 4 Este 0 -- -- 99
2020-11-01 07:00:00 1.2 0 Calma 5 Sudeste 0 -- -- 97
2020-11-01 06:00:00 1.2 0 Calma 7 Norte 0 -- -- 95
2020-11-01 05:00:00 1.4 4 Nordeste 7 Sudeste 0 -- -- 95
2020-11-01 04:00:00 1.8 2 Este 6 Sudeste 0 -- -- 93
2020-11-01 03:00:00 2 2 Este 5 Este 0 -- -- 95
2020-11-01 02:00:00 2.5 0 Calma 4 Norte 0 -- -- 94
2020-11-01 01:00:00 3 0 Calma 3 Nordeste 0 -- -- 92
2020-11-01 00:00:00 3.6 0 Calma 6 Sudeste 0 -- -- 89
2020-10-31 23:00:00 4.5 0 Calma 5 Norte 0 -- -- 85
2020-10-31 22:00:00 5.2 2 Este 5 Sudeste 0 -- -- 86
2020-10-31 21:00:00 6.3 0 Calma 6 Sudeste 0 -- -- 82
2020-10-31 20:00:00 8 0 Calma 7 Sudeste 0 -- -- 77
2020-10-31 19:00:00 10.1 0 Calma 7 Sudeste 0 -- -- 70
2020-10-31 18:00:00 13.9 3 Sur 24 Oeste 0 -- -- 58
2020-10-31 17:00:00 19.2 13 Oeste 23 Oeste 0 -- -- 38
2020-10-31 16:00:00 22 12 Oeste 24 Sudoeste 0 -- -- 32
2020-10-31 15:00:00 22.6 14 Oeste 23 Sudoeste 0 -- -- 29
2020-10-31 14:00:00 22.4 11 Sudoeste 20 Sudoeste 0 -- -- 26
2020-10-31 13:00:00 20.4 7 Sudoeste 13 Sudoeste 0 -- -- 32
2020-10-31 12:00:00 17.5 3 Sur 9 Sudoeste 0 -- -- 42
2020-10-31 11:00:00 12.3 2 Sudeste 4 Sudeste 0 -- -- 54
2020-10-31 10:00:00 5.7 0 Calma 4 Sudeste 0 -- -- 81
2020-10-31 09:00:00 -0.1 0 Calma 5 Sudeste 0 -- -- 97
2020-10-31 08:00:00 -0.6 0 Calma 4 Este 0 -- -- 95
2020-10-31 07:00:00 -0.6 0 Calma 4 Norte 0 -- -- 95
2020-10-31 06:00:00 -0.1 0 Calma 3 Sudeste 0 -- -- 97
2020-10-31 05:00:00 0.1 0 Calma 2 Este 0 -- -- 96
2020-10-31 04:00:00 0.6 0 Calma 3 Sudeste 0 -- -- 96
2020-10-31 03:00:00 1.4 0 Calma 5 Sudeste 0 -- -- 94
2020-10-31 02:00:00 1.6 0 Calma 3 Sudeste 0 -- -- 95
2020-10-31 01:00:00 2.1 0 Calma 4 Sudeste 0 -- -- 95
2020-10-31 00:00:00 2.7 0 Calma 2 Sudeste 0 -- -- 95
2020-10-30 23:00:00 3.5 0 Calma 3 Este 0 -- -- 93
2020-10-30 22:00:00 4.3 0 Calma 3 Este 0 -- -- 90
2020-10-30 21:00:00 5.4 0 Calma 3 Este 0 -- -- 88
2020-10-30 20:00:00 7.1 0 Calma 3 Sudeste 0 -- -- 86
2020-10-30 19:00:00 9.2 0 Calma 4 Sudeste 0 -- -- 80
2020-10-30 18:00:00 12.6 0 Calma 4 Oeste 0 -- -- 69
2020-10-30 17:00:00 17.6 0 Calma 17 Oeste 0 -- -- 50
2020-10-30 16:00:00 22.5 8 Oeste 16 Oeste 0 -- -- 34
2020-10-30 15:00:00 22.9 5 Sur 13 Sur 0 -- -- 40
2020-10-30 14:00:00 22.1 6 Sur 12 Oeste 0 -- -- 33
2020-10-30 13:00:00 19.2 3 Este 7 Norte 0 -- -- 39
2020-10-30 12:00:00 16.5 2 Sudeste 6 Sur 0 -- -- 49
2020-10-30 11:00:00 11.9 4 Sudeste 6 Este 0 -- -- 68
2020-10-30 10:00:00 6.4 3 Sudeste 6 Sudoeste 0 -- -- 99
2020-10-30 09:00:00 0.6 0 Calma 5 Este 0 -- -- 100
2020-10-30 08:00:00 -0.1 0 Calma 3 Este 0 -- -- 99
2020-10-30 07:00:00 0.2 0 Calma 4 Sudeste 0 -- -- 99
2020-10-30 06:00:00 0.5 0 Calma 3 Este 0 -- -- 99
2020-10-30 05:00:00 0.7 0 Calma 3 Noroeste 0 -- -- 98
2020-10-30 04:00:00 1 0 Calma 4 Este 0 -- -- 98
2020-10-30 03:00:00 1.6 0 Calma 3 Norte 0 -- -- 97
2020-10-30 02:00:00 2.1 0 Calma 2 Norte 0 -- -- 97
2020-10-30 01:00:00 2.8 0 Calma 3 Este 0 -- -- 96
2020-10-30 00:00:00 3.6 0 Calma 3 Este 0 -- -- 96
2020-10-29 23:00:00 4.2 0 Calma 3 Este 0 -- -- 95
2020-10-29 22:00:00 5.3 0 Calma 3 Norte 0 -- -- 95
2020-10-29 21:00:00 6.1 0 Calma 2 Noroeste 0 -- -- 92
2020-10-29 20:00:00 7.4 0 Calma 2 Este 0 -- -- 90
2020-10-29 19:00:00 9.4 0 Calma 3 Sur 0 -- -- 84
2020-10-29 18:00:00 12.4 0 Calma 22 Oeste 0 -- -- 75
2020-10-29 17:00:00 15.3 12 Oeste 23 Oeste 0 -- -- 63
2020-10-29 16:00:00 17.5 13 Oeste 22 Sudoeste 0 -- -- 58
2020-10-29 15:00:00 17.8 14 Oeste 24 Sudoeste 0 -- -- 56
2020-10-29 14:00:00 18.4 11 Sudoeste 16 Sudoeste 0 -- -- 52
2020-10-29 13:00:00 16.5 3 Sur 9 Sudeste 0 -- -- 51
2020-10-29 12:00:00 14 3 Nordeste 10 Sudeste 0 -- -- 57
2020-10-29 11:00:00 11.1 3 Sudeste 9 Oeste 0 -- -- 73
2020-10-29 10:00:00 6.9 0 Calma 5 Sudeste 0 -- -- 98
2020-10-29 09:00:00 1.4 0 Calma 4 Sudeste 0 -- -- 100
2020-10-29 08:00:00 0.9 0 Calma 4 Sudeste 0 -- -- 100
2020-10-29 07:00:00 1.2 0 Calma 5 Sudeste 0 -- -- 99
2020-10-29 06:00:00 1.8 2 Este 6 Sudeste 0 -- -- 100
2020-10-29 05:00:00 2.1 0 Calma 6 Sudeste 0 -- -- 100
2020-10-29 04:00:00 2.6 2 Nordeste 6 Sudeste 0 -- -- 100
2020-10-29 03:00:00 2.9 0 Calma 6 Sudeste 0 -- -- 99
2020-10-29 02:00:00 3.1 0 Calma 5 Sudeste 0 -- -- 98
2020-10-29 01:00:00 3.8 0 Calma 6 Sudeste 0 -- -- 96
2020-10-29 00:00:00 4.7 0 Calma 6 Sudeste 0 -- -- 95
2020-10-28 23:00:00 5.9 3 Norte 6 Sudeste 0 -- -- 94
2020-10-28 22:00:00 7.7 0 Calma 5 Sudeste 0 -- -- 90
2020-10-28 21:00:00 8.8 0 Calma 4 Sudeste 0 -- -- 90
2020-10-28 20:00:00 10.1 0 Calma 4 Sudeste 0 -- -- 85
2020-10-28 19:00:00 11.6 2 Nordeste 5 Este 0 -- -- 79
2020-10-28 18:00:00 13.3 4 Oeste 17 Oeste 0 -- -- 71
2020-10-28 17:00:00 14.3 10 Oeste 24 Sudoeste 0 -- -- 65
2020-10-28 16:00:00 16.3 13 Sudoeste 26 Oeste 0 -- -- 59
2020-10-28 15:00:00 17.1 14 Sudoeste 24 Sudoeste 0 -- -- 55
2020-10-28 14:00:00 16.7 13 Sudoeste 22 Sudoeste 0 -- -- 57
2020-10-28 13:00:00 15.4 14 Oeste 23 Sudoeste 0 -- -- 57
2020-10-28 12:00:00 13.2 3 Este 9 Sudeste 0 -- -- 66
2020-10-28 11:00:00 9.1 0 Calma 6 Este 0 -- -- 87
2020-10-28 10:00:00 5.6 3 Sudeste 5 Sudeste 0 -- -- 100
2020-10-28 09:00:00 3.3 0 Calma 3 Sudeste 0 -- -- 100
2020-10-28 08:00:00 1.7 0 Calma 5 Noroeste 0 -- -- 100
2020-10-28 07:00:00 1.4 0 Calma 5 Sur 0 -- -- 100
2020-10-28 06:00:00 1.1 2 Norte 5 Sudoeste 0 -- -- 100
2020-10-28 05:00:00 1 0 Calma 4 Sudeste 0 -- -- 99
2020-10-28 04:00:00 1.5 0 Calma 5 Sudeste 0 -- -- 99
2020-10-28 03:00:00 2.1 2 Este 9 Este 0 -- -- 99
2020-10-28 02:00:00 2.1 0 Calma 4 Norte 0 -- -- 98
2020-10-28 01:00:00 2.4 3 Norte 8 Sudeste 0 -- -- 97
2020-10-28 00:00:00 3.2 0 Calma 5 Sur 0 -- -- 94